Time;durP1;ratioP1;P1;durP2;ratioP2;P2;SDS_P1;SDS_P2;PMS_P1;PMS_P2;Temp;Humidity;BMP_temperature;BMP_pressure;BME280_temperature;BME280_humidity;BME280_pressure;Samples;Min_cycle;Max_cycle;Signal;HPM_P1;HPM_P2
2021/12/14 00:02:18;;;;;;;1.27;1.27;;;6.50;99.90;;;;;;6178785;23;20185;-70
2021/12/14 00:04:55;;;;;;;0.90;0.90;;;6.50;99.90;;;;;;6178333;23;20200;-71
2021/12/14 00:07:26;;;;;;;1.30;1.27;;;6.50;99.90;;;;;;6175508;23;20190;-74
2021/12/14 00:10:11;;;;;;;1.15;1.10;;;6.50;99.90;;;;;;6180501;23;20606;-74
2021/12/14 00:12:55;;;;;;;2.67;1.38;;;6.60;99.90;;;;;;6168690;23;20209;-73
2021/12/14 00:15:26;;;;;;;1.08;1.00;;;6.60;99.90;;;;;;6178079;23;20183;-74
2021/12/14 00:18:00;;;;;;;1.40;1.30;;;6.50;99.90;;;;;;6177991;23;20182;-74
2021/12/14 00:20:37;;;;;;;1.77;1.67;;;6.50;99.90;;;;;;6177783;23;20191;-72
2021/12/14 00:25:59;;;;;;;0.70;0.70;;;6.50;99.90;;;;;;6179319;23;20248;-73
2021/12/14 00:28:35;;;;;;;4.05;1.67;;;6.40;99.90;;;;;;6175873;23;20189;-74
2021/12/14 00:31:10;;;;;;;1.52;1.42;;;6.30;99.90;;;;;;6175500;23;20190;-73
2021/12/14 00:33:44;;;;;;;0.90;0.90;;;6.30;99.90;;;;;;6178254;23;20264;-73
2021/12/14 00:36:17;;;;;;;1.45;1.10;;;6.20;99.90;;;;;;6179360;23;20185;-74
2021/12/14 00:38:54;;;;;;;1.40;1.30;;;6.30;99.90;;;;;;6176802;23;20193;-73
2021/12/14 00:41:28;;;;;;;1.25;1.15;;;6.30;99.90;;;;;;6177015;23;20182;-74
2021/12/14 00:44:00;;;;;;;0.85;0.85;;;6.20;99.90;;;;;;6175874;23;20690;-74
2021/12/14 00:46:33;;;;;;;1.13;1.02;;;6.30;99.90;;;;;;6173465;23;20202;-73
2021/12/14 00:49:05;;;;;;;0.70;0.70;;;6.20;99.90;;;;;;6176415;23;20178;-72
2021/12/14 00:51:37;;;;;;;0.90;0.90;;;6.20;99.90;;;;;;6179351;23;20190;-73
2021/12/14 00:54:12;;;;;;;6.43;2.25;;;6.20;99.90;;;;;;6177905;23;20175;-73
2021/12/14 00:56:50;;;;;;;1.05;1.05;;;6.10;99.90;;;;;;6179217;23;20261;-72
2021/12/14 00:59:23;;;;;;;23.20;4.90;;;6.10;99.90;;;;;;6177178;23;20193;-73
2021/12/14 01:01:57;;;;;;;1.70;1.10;;;6.10;99.90;;;;;;6179228;23;20187;-73
2021/12/14 01:04:31;;;;;;;1.25;1.15;;;6.10;99.90;;;;;;6178174;23;20178;-74
2021/12/14 01:07:07;;;;;;;1.30;1.20;;;6.00;99.90;;;;;;6179569;23;20205;-74
2021/12/14 01:09:40;;;;;;;1.33;1.23;;;5.90;99.90;;;;;;6178464;23;20210;-73
2021/12/14 01:12:19;;;;;;;1.30;1.20;;;5.90;99.90;;;;;;6179140;23;20183;-73
2021/12/14 01:15:10;;;;;;;1.50;1.40;;;5.90;99.90;;;;;;6178154;23;20252;-71
2021/12/14 01:17:54;;;;;;;0.80;0.80;;;5.80;99.90;;;;;;6176364;23;20183;-73
2021/12/14 01:20:32;;;;;;;0.57;0.57;;;5.80;99.90;;;;;;6172319;23;20182;-68
2021/12/14 01:23:15;;;;;;;0.70;0.70;;;5.80;99.90;;;;;;6176938;23;20656;-71
2021/12/14 01:25:49;;;;;;;0.63;0.63;;;5.80;99.90;;;;;;6179071;23;20252;-73
2021/12/14 01:28:25;;;;;;;0.85;0.85;;;5.80;99.90;;;;;;6176962;23;20614;-72
2021/12/14 01:31:04;;;;;;;0.93;0.65;;;5.80;99.90;;;;;;6178887;23;20676;-73
2021/12/14 01:33:38;;;;;;;0.60;0.57;;;5.80;99.90;;;;;;6177653;23;20186;-71
2021/12/14 01:36:22;;;;;;;0.63;0.63;;;5.80;99.90;;;;;;6177049;23;20190;-71
2021/12/14 01:39:21;;;;;;;0.68;0.63;;;5.80;99.90;;;;;;6175667;23;20182;-70
2021/12/14 01:41:56;;;;;;;0.63;0.47;;;5.80;99.90;;;;;;6176795;23;20261;-72
2021/12/14 01:44:30;;;;;;;0.40;0.40;;;5.80;99.90;;;;;;6177114;23;20546;-71
2021/12/14 01:47:05;;;;;;;0.50;0.50;;;5.80;99.90;;;;;;6180946;23;20203;-70
2021/12/14 01:49:37;;;;;;;0.80;0.80;;;5.70;99.90;;;;;;6176363;23;20181;-71
2021/12/14 01:52:14;;;;;;;0.70;0.70;;;5.70;99.90;;;;;;6177161;23;20183;-72
2021/12/14 01:54:50;;;;;;;0.60;0.57;;;5.70;99.90;;;;;;6178875;23;20187;-72
2021/12/14 01:57:24;;;;;;;0.50;0.50;;;5.70;99.90;;;;;;6178986;23;20212;-73
2021/12/14 01:59:58;;;;;;;0.60;0.50;;;5.70;99.90;;;;;;6177332;23;20244;-72
2021/12/14 02:02:42;;;;;;;0.93;0.93;;;5.70;99.90;;;;;;6178666;23;20186;-75
2021/12/14 02:05:28;;;;;;;1.88;0.77;;;5.60;99.90;;;;;;6176787;23;20182;-70
2021/12/14 02:08:15;;;;;;;0.90;0.90;;;5.60;99.90;;;;;;6175630;23;20647;-72
2021/12/14 02:10:50;;;;;;;0.85;0.85;;;5.60;99.90;;;;;;6177581;23;20189;-72
2021/12/14 02:13:27;;;;;;;1.10;0.90;;;5.60;99.90;;;;;;6179293;23;20265;-72
2021/12/14 02:16:05;;;;;;;1.23;1.13;;;5.50;99.90;;;;;;6179243;23;20264;-71
2021/12/14 02:22:27;;;;;;;1.38;1.08;;;5.40;99.90;;;;;;6180908;23;20186;-72
2021/12/14 02:25:03;;;;;;;1.40;1.10;;;5.40;99.90;;;;;;6178630;23;20474;-74
2021/12/14 02:27:39;;;;;;;1.50;1.20;;;5.30;99.90;;;;;;6179100;23;20606;-72
2021/12/14 02:30:20;;;;;;;1.25;1.15;;;5.30;99.90;;;;;;6182075;23;20206;-77
2021/12/14 02:36:31;;;;;;;1.35;1.20;;;5.30;99.90;;;;;;6148335;23;20190;-77
2021/12/14 02:39:47;;;;;;;1.95;1.85;;;5.30;99.90;;;;;;6118258;23;20250;-76
2021/12/14 02:42:32;;;;;;;1.67;1.23;;;5.40;99.90;;;;;;6148689;23;20266;-71
2021/12/14 02:48:26;;;;;;;2.28;2.17;;;5.40;99.90;;;;;;6127598;23;20273;-70
2021/12/14 02:50:58;;;;;;;1.55;1.45;;;5.50;99.90;;;;;;6150886;23;20182;-69
2021/12/14 02:53:29;;;;;;;2.03;1.30;;;5.50;99.90;;;;;;6148880;23;20187;-71
2021/12/14 02:56:01;;;;;;;2.85;1.80;;;5.40;99.90;;;;;;6149329;23;20470;-69
2021/12/14 02:58:50;;;;;;;1.15;1.15;;;5.40;99.90;;;;;;6148693;23;20262;-72
2021/12/14 03:01:29;;;;;;;1.20;1.20;;;5.40;99.90;;;;;;6145542;23;20262;-72
2021/12/14 03:04:04;;;;;;;1.35;1.35;;;5.40;99.90;;;;;;6145166;23;20467;-73
2021/12/14 03:06:57;;;;;;;1.55;1.45;;;5.30;99.90;;;;;;6148474;23;20269;-74
2021/12/14 03:09:54;;;;;;;1.67;1.50;;;5.30;99.90;;;;;;6148648;23;20263;-70
2021/12/14 03:12:44;;;;;;;1.55;1.45;;;5.30;99.90;;;;;;6144064;23;20258;-72
2021/12/14 03:15:18;;;;;;;2.83;2.67;;;5.30;99.90;;;;;;6148704;23;20194;-73
2021/12/14 03:17:51;;;;;;;2.00;1.90;;;5.30;99.90;;;;;;6149394;23;20180;-72
2021/12/14 03:20:30;;;;;;;1.20;1.10;;;5.30;99.90;;;;;;6140892;23;20195;-76
2021/12/14 03:23:05;;;;;;;1.23;1.20;;;5.30;99.90;;;;;;6151042;23;20258;-74
2021/12/14 03:26:00;;;;;;;1.70;1.60;;;5.30;99.90;;;;;;6147744;23;20235;-73
2021/12/14 03:32:57;;;;;;;1.60;1.50;;;5.30;99.90;;;;;;6121881;23;20237;-74
2021/12/14 03:35:40;;;;;;;1.67;1.58;;;5.30;99.90;;;;;;6138576;23;20190;-73
2021/12/14 03:38:53;;;;;;;1.42;1.33;;;5.30;99.90;;;;;;6141023;23;20189;-73
2021/12/14 03:41:56;;;;;;;1.65;1.55;;;5.30;99.90;;;;;;6145778;23;20187;-73
2021/12/14 03:45:23;;;;;;;1.50;1.40;;;5.30;99.90;;;;;;6091712;23;20319;-79
2021/12/14 04:00:08;;;;;;;1.50;1.40;;;5.20;99.90;;;;;;6149621;23;20175;-72
2021/12/14 04:02:40;;;;;;;1.35;1.30;;;5.10;99.90;;;;;;6151869;23;20191;-74
2021/12/14 04:05:13;;;;;;;1.40;1.40;;;5.00;99.90;;;;;;6143569;23;20191;-72
2021/12/14 04:07:45;;;;;;;1.75;1.65;;;5.00;99.90;;;;;;6150725;23;20199;-72
2021/12/14 04:10:24;;;;;;;1.52;1.42;;;4.90;99.90;;;;;;6147924;23;20187;-73
2021/12/14 04:12:56;;;;;;;1.90;1.80;;;4.80;99.90;;;;;;6149181;23;20187;-73
2021/12/14 04:15:27;;;;;;;3.50;1.80;;;4.80;99.90;;;;;;6147343;23;20187;-73
2021/12/14 04:18:00;;;;;;;2.15;2.00;;;4.70;99.90;;;;;;6150323;23;20180;-77
2021/12/14 04:20:34;;;;;;;1.67;1.58;;;4.70;99.90;;;;;;6142852;23;20183;-74
2021/12/14 04:23:10;;;;;;;1.80;1.70;;;4.70;99.90;;;;;;6149787;23;20657;-74
2021/12/14 04:25:42;;;;;;;4.93;2.72;;;4.60;99.90;;;;;;6147456;23;20475;-73
2021/12/14 04:28:16;;;;;;;2.10;1.90;;;4.60;99.90;;;;;;6150738;23;20211;-73
2021/12/14 04:30:48;;;;;;;1.70;1.60;;;4.50;99.90;;;;;;6149013;23;20213;-73
2021/12/14 04:33:25;;;;;;;1.65;1.55;;;4.50;99.90;;;;;;6146107;23;20183;-74
2021/12/14 04:35:57;;;;;;;1.90;1.80;;;4.50;99.90;;;;;;6151384;23;20605;-73
2021/12/14 04:38:30;;;;;;;2.00;1.80;;;4.40;99.90;;;;;;6148314;23;20183;-74
2021/12/14 04:52:23;;;;;;;67.15;16.45;;;4.40;99.90;;;;;;6149885;23;20282;-74
2021/12/14 04:54:57;;;;;;;2.17;1.90;;;4.30;99.90;;;;;;6149225;23;20183;-73
2021/12/14 05:01:36;;;;;;;2.47;2.28;;;4.30;99.90;;;;;;6113790;23;20361;-69
2021/12/14 05:04:10;;;;;;;2.42;1.98;;;4.20;99.90;;;;;;6149915;23;20217;-72
2021/12/14 05:06:48;;;;;;;2.10;1.73;;;4.20;99.90;;;;;;6148518;23;20187;-73
2021/12/14 05:09:22;;;;;;;1.45;1.35;;;4.20;99.90;;;;;;6146933;23;20210;-72
2021/12/14 05:11:55;;;;;;;2.42;2.03;;;4.30;99.90;;;;;;6148414;23;20225;-71
2021/12/14 05:14:27;;;;;;;3.50;2.28;;;4.30;99.90;;;;;;6148482;23;20198;-71
2021/12/14 05:16:59;;;;;;;2.58;2.38;;;4.20;99.90;;;;;;6149430;23;20183;-72
2021/12/14 05:19:34;;;;;;;2.40;2.20;;;4.20;99.90;;;;;;6145681;23;20183;-73
2021/12/14 05:22:11;;;;;;;1.83;1.73;;;4.30;99.90;;;;;;6150110;23;20193;-74
2021/12/14 05:24:43;;;;;;;2.20;2.10;;;4.30;99.90;;;;;;6149933;23;20187;-74
2021/12/14 05:27:23;;;;;;;2.50;2.30;;;4.30;99.90;;;;;;6148506;23;20494;-71
2021/12/14 05:29:54;;;;;;;2.25;2.10;;;4.20;99.90;;;;;;6146512;23;20224;-72
2021/12/14 05:32:25;;;;;;;2.92;2.60;;;4.20;99.90;;;;;;6146945;23;20183;-71
2021/12/14 05:34:56;;;;;;;2.60;2.40;;;4.10;99.90;;;;;;6147640;23;20291;-71
2021/12/14 05:37:33;;;;;;;4.90;2.95;;;4.10;99.90;;;;;;6147292;23;20195;-72
2021/12/14 05:40:06;;;;;;;2.50;2.30;;;4.10;99.90;;;;;;6146579;23;20650;-71
2021/12/14 05:45:25;;;;;;;2.05;1.95;;;4.10;99.90;;;;;;6148659;23;20258;-71
2021/12/14 05:47:59;;;;;;;2.10;1.88;;;4.10;99.90;;;;;;6148306;23;20207;-71
2021/12/14 05:50:32;;;;;;;4.50;3.00;;;4.10;99.90;;;;;;6147194;23;20647;-70
2021/12/14 05:53:07;;;;;;;2.63;2.25;;;4.10;99.90;;;;;;6148015;23;20183;-70
2021/12/14 05:55:40;;;;;;;2.40;2.20;;;4.20;99.90;;;;;;6145567;23;20266;-71
2021/12/14 05:58:16;;;;;;;2.65;1.95;;;4.20;99.90;;;;;;6148171;23;20183;-70
2021/12/14 06:00:50;;;;;;;2.45;2.28;;;4.20;99.90;;;;;;6148039;23;20183;-70
2021/12/14 06:03:24;;;;;;;3.00;2.70;;;4.20;99.90;;;;;;6149196;23;20238;-70
2021/12/14 06:05:57;;;;;;;2.55;2.35;;;4.30;99.90;;;;;;6146771;23;20499;-70
2021/12/14 06:08:31;;;;;;;2.33;2.22;;;4.30;99.90;;;;;;6148274;23;20226;-70
2021/12/14 06:11:03;;;;;;;2.78;2.58;;;4.40;99.90;;;;;;6145155;23;20213;-70
2021/12/14 06:13:41;;;;;;;2.25;2.15;;;4.40;99.90;;;;;;6150482;23;20187;-72
2021/12/14 06:16:27;;;;;;;2.60;2.40;;;4.60;99.90;;;;;;6146525;23;20498;-71
2021/12/14 06:19:17;;;;;;;2.70;2.50;;;4.70;99.90;;;;;;6148868;23;20181;-71
2021/12/14 06:21:50;;;;;;;2.90;2.70;;;4.70;99.90;;;;;;6148659;23;20183;-71
2021/12/14 06:24:25;;;;;;;3.08;2.88;;;4.80;99.90;;;;;;6147136;23;20643;-71
2021/12/14 06:27:01;;;;;;;3.10;2.90;;;4.80;99.90;;;;;;6148641;23;20187;-71
2021/12/14 06:29:36;;;;;;;2.72;2.60;;;4.80;99.90;;;;;;6145962;23;20674;-72
2021/12/14 06:32:09;;;;;;;2.53;2.40;;;4.80;99.90;;;;;;6147261;23;20209;-71
2021/12/14 06:34:44;;;;;;;4.10;2.80;;;4.90;99.90;;;;;;6149021;23;20183;-71
2021/12/14 06:38:08;;;;;;;2.17;2.08;;;4.90;99.90;;;;;;6148709;23;20192;-71
2021/12/14 06:40:45;;;;;;;2.60;2.40;;;4.80;99.90;;;;;;6146479;23;20187;-71
2021/12/14 06:43:19;;;;;;;2.10;1.95;;;4.90;99.90;;;;;;6148238;23;20197;-71
2021/12/14 06:45:55;;;;;;;2.15;2.05;;;4.90;99.90;;;;;;6148470;23;20191;-71
2021/12/14 06:48:30;;;;;;;3.40;3.10;;;5.00;99.90;;;;;;6145053;23;20213;-71
2021/12/14 06:51:05;;;;;;;2.15;2.05;;;5.00;99.90;;;;;;6144951;23;20187;-71
2021/12/14 06:53:38;;;;;;;3.40;2.55;;;5.00;99.90;;;;;;6149845;23;20182;-71
2021/12/14 06:56:15;;;;;;;2.40;2.30;;;5.00;99.90;;;;;;6146812;23;20193;-71
2021/12/14 06:58:52;;;;;;;2.58;2.42;;;5.00;99.90;;;;;;6150238;23;20179;-71
2021/12/14 07:01:25;;;;;;;2.70;2.50;;;5.00;99.90;;;;;;6146634;23;20187;-71
2021/12/14 07:04:01;;;;;;;2.55;2.35;;;5.00;99.90;;;;;;6147884;23;20190;-70
2021/12/14 07:06:34;;;;;;;2.63;2.42;;;5.00;99.90;;;;;;6147060;23;20182;-71
2021/12/14 07:09:09;;;;;;;3.63;3.33;;;5.10;99.90;;;;;;6150729;23;20225;-71
2021/12/14 07:11:45;;;;;;;3.80;3.50;;;5.10;99.90;;;;;;6148548;23;20607;-70
2021/12/14 07:14:29;;;;;;;3.28;3.08;;;5.10;99.90;;;;;;6152367;23;20187;-70
2021/12/14 07:17:03;;;;;;;2.80;2.60;;;5.20;99.90;;;;;;6150705;23;20187;-70
2021/12/14 07:19:47;;;;;;;3.42;3.17;;;5.00;99.90;;;;;;6145711;23;20187;-69
2021/12/14 07:22:41;;;;;;;3.78;3.53;;;5.00;99.90;;;;;;6150483;23;20194;-69
2021/12/14 07:25:14;;;;;;;1.45;1.35;;;4.80;99.90;;;;;;6151734;23;20206;-69
2021/12/14 07:27:48;;;;;;;1.08;1.08;;;4.60;99.90;;;;;;6148358;23;20183;-69
2021/12/14 07:30:26;;;;;;;0.93;0.90;;;4.40;99.90;;;;;;6151221;23;20206;-70
2021/12/14 07:33:01;;;;;;;0.82;0.82;;;4.30;99.90;;;;;;6150836;23;20567;-69
2021/12/14 07:35:49;;;;;;;0.60;0.60;;;4.20;99.90;;;;;;6148143;23;20647;-70
2021/12/14 07:38:32;;;;;;;1.23;1.17;;;4.10;99.90;;;;;;6148253;23;20207;-70
2021/12/14 07:41:15;;;;;;;0.88;0.88;;;4.10;99.90;;;;;;6148943;23;20627;-70
2021/12/14 07:43:51;;;;;;;1.10;1.00;;;3.90;99.90;;;;;;6150108;23;20191;-70
2021/12/14 07:46:30;;;;;;;1.10;1.00;;;3.80;99.90;;;;;;6147873;23;20610;-70
2021/12/14 07:49:04;;;;;;;0.95;0.90;;;3.70;99.90;;;;;;6147309;23;20199;-70
2021/12/14 07:51:38;;;;;;;1.17;1.08;;;3.80;99.90;;;;;;6150544;23;20623;-70
2021/12/14 07:54:12;;;;;;;1.15;1.15;;;3.90;99.90;;;;;;6149269;23;20624;-70
2021/12/14 07:56:45;;;;;;;1.70;1.60;;;4.00;99.90;;;;;;6152317;23;20182;-70
2021/12/14 07:59:25;;;;;;;1.95;0.90;;;3.90;99.90;;;;;;6145714;23;20694;-70
2021/12/14 08:02:11;;;;;;;1.15;1.15;;;4.00;99.90;;;;;;6152801;23;20190;-70
2021/12/14 08:04:44;;;;;;;1.80;1.40;;;3.90;99.90;;;;;;6146560;23;20257;-69
2021/12/14 08:07:25;;;;;;;1.00;1.00;;;4.00;99.90;;;;;;6150485;23;20184;-70
2021/12/14 08:10:06;;;;;;;0.60;0.60;;;3.90;99.90;;;;;;6151941;23;20229;-70
2021/12/14 08:12:40;;;;;;;0.85;0.85;;;3.90;99.90;;;;;;6147699;23;20536;-70
2021/12/14 08:15:20;;;;;;;0.90;0.90;;;3.90;99.90;;;;;;6149950;23;20187;-70
2021/12/14 08:18:02;;;;;;;1.00;0.95;;;3.90;99.90;;;;;;6147556;23;20198;-70
2021/12/14 08:20:35;;;;;;;1.17;1.08;;;3.80;99.90;;;;;;6149259;23;20528;-70
2021/12/14 08:23:16;;;;;;;1.02;1.02;;;3.70;99.90;;;;;;6147317;23;20647;-70
2021/12/14 08:25:47;;;;;;;1.02;0.80;;;3.60;99.90;;;;;;6149080;23;20183;-70
2021/12/14 08:28:21;;;;;;;1.67;1.35;;;3.60;99.90;;;;;;6147483;23;20221;-70
2021/12/14 08:31:13;;;;;;;1.60;1.50;;;3.70;99.90;;;;;;6147804;23;20222;-70
2021/12/14 08:33:44;;;;;;;1.42;1.33;;;3.70;99.90;;;;;;6148337;23;20187;-70
2021/12/14 08:36:15;;;;;;;1.55;1.40;;;3.70;99.90;;;;;;6149651;23;20183;-70
2021/12/14 08:38:46;;;;;;;1.80;1.70;;;3.60;99.90;;;;;;6145097;23;20529;-70
2021/12/14 08:41:24;;;;;;;1.35;1.25;;;3.50;99.90;;;;;;6147929;23;20183;-69
2021/12/14 08:43:56;;;;;;;1.73;1.52;;;3.40;99.90;;;;;;6150415;23;20183;-70
2021/12/14 08:46:31;;;;;;;1.80;1.70;;;3.30;99.90;;;;;;6149035;23;20194;-70
2021/12/14 08:49:07;;;;;;;1.65;1.55;;;3.20;99.90;;;;;;6146612;23;20187;-70
2021/12/14 08:51:40;;;;;;;1.67;1.58;;;3.20;99.90;;;;;;6147662;23;20278;-70
2021/12/14 08:54:15;;;;;;;1.50;1.40;;;3.10;99.90;;;;;;6150669;23;20213;-70
2021/12/14 08:56:52;;;;;;;2.08;1.75;;;3.10;99.90;;;;;;6148252;23;20522;-70
2021/12/14 08:59:23;;;;;;;2.30;2.10;;;3.20;99.90;;;;;;6147585;23;20182;-70
2021/12/14 09:02:02;;;;;;;1.80;1.70;;;3.30;99.90;;;;;;6149811;23;20202;-70
2021/12/14 09:04:37;;;;;;;2.05;1.90;;;3.40;99.90;;;;;;6148717;23;20246;-70
2021/12/14 09:07:11;;;;;;;2.40;2.20;;;3.50;99.90;;;;;;6148455;23;20187;-72
2021/12/14 09:09:43;;;;;;;2.20;2.10;;;3.60;99.90;;;;;;6147466;23;20202;-70
2021/12/14 09:12:17;;;;;;;2.45;2.25;;;3.60;99.90;;;;;;6149393;23;20475;-69
2021/12/14 09:14:51;;;;;;;2.70;2.50;;;3.70;99.90;;;;;;6146883;23;20523;-70
2021/12/14 09:17:24;;;;;;;2.38;2.17;;;3.80;99.90;;;;;;6149870;23;20195;-71
2021/12/14 09:19:59;;;;;;;2.65;2.45;;;3.80;99.90;;;;;;6146145;23;20254;-71
2021/12/14 09:22:33;;;;;;;2.88;2.67;;;3.80;99.90;;;;;;6149540;23;20222;-70
2021/12/14 09:25:08;;;;;;;2.35;2.15;;;3.80;99.90;;;;;;6151066;23;20187;-71
2021/12/14 09:27:39;;;;;;;2.28;2.08;;;3.80;99.90;;;;;;6145533;23;20202;-71
2021/12/14 09:30:13;;;;;;;3.17;2.92;;;3.80;99.90;;;;;;6142121;23;20264;-71
2021/12/14 09:32:45;;;;;;;2.22;2.03;;;3.90;99.90;;;;;;6151243;23;20605;-71
2021/12/14 09:35:20;;;;;;;3.30;3.00;;;4.00;99.90;;;;;;6148392;23;20187;-71
2021/12/14 09:37:53;;;;;;;2.72;2.55;;;4.10;99.90;;;;;;6146990;23;20658;-70
2021/12/14 09:40:27;;;;;;;3.33;2.50;;;4.00;99.90;;;;;;6148808;23;20179;-70
2021/12/14 09:42:58;;;;;;;2.10;2.00;;;4.10;99.90;;;;;;6149093;23;20190;-70
2021/12/14 09:45:35;;;;;;;2.50;2.30;;;4.20;99.90;;;;;;6148688;23;20183;-70
2021/12/14 09:48:08;;;;;;;3.05;2.85;;;4.20;99.90;;;;;;6147254;23;20187;-70
2021/12/14 09:50:39;;;;;;;2.75;2.55;;;4.20;99.90;;;;;;6151048;23;20215;-70
2021/12/14 09:53:15;;;;;;;2.35;2.15;;;4.10;99.90;;;;;;6150651;23;20191;-70
2021/12/14 09:55:47;;;;;;;4.07;2.72;;;4.10;99.90;;;;;;6147760;23;20191;-70
2021/12/14 09:58:21;;;;;;;2.90;2.70;;;4.10;99.90;;;;;;6149941;23;20187;-70
2021/12/14 10:00:57;;;;;;;2.30;2.10;;;4.20;99.90;;;;;;6146935;23;20285;-70
2021/12/14 10:03:29;;;;;;;2.10;1.98;;;4.20;99.90;;;;;;6146273;23;20249;-70
2021/12/14 10:06:04;;;;;;;2.40;2.30;;;4.30;99.90;;;;;;6146790;23;20651;-70
2021/12/14 10:08:40;;;;;;;2.53;2.35;;;4.30;99.90;;;;;;6148882;23;20187;-70
2021/12/14 10:11:23;;;;;;;2.72;2.53;;;4.30;99.90;;;;;;6142820;23;20202;-70
2021/12/14 10:13:55;;;;;;;2.60;2.40;;;4.30;99.90;;;;;;6147980;23;20183;-70
2021/12/14 10:16:26;;;;;;;2.63;2.42;;;4.30;99.90;;;;;;6142530;23;20187;-70
2021/12/14 10:19:02;;;;;;;1.63;1.52;;;4.30;99.90;;;;;;6147733;23;20187;-70
2021/12/14 10:21:41;;;;;;;2.00;1.88;;;4.30;99.90;;;;;;6148355;23;20222;-70
2021/12/14 10:24:13;;;;;;;1.40;1.30;;;4.20;99.90;;;;;;6148049;23;20243;-70
2021/12/14 10:26:50;;;;;;;1.60;1.40;;;4.20;99.90;;;;;;6150557;23;20210;-70
2021/12/14 10:29:21;;;;;;;0.95;0.95;;;4.30;99.90;;;;;;6138280;23;20202;-71
2021/12/14 10:31:59;;;;;;;1.40;1.30;;;4.20;99.90;;;;;;6150247;23;20218;-70
2021/12/14 10:34:35;;;;;;;1.15;1.15;;;4.10;99.90;;;;;;6147392;23;20183;-70
2021/12/14 10:37:13;;;;;;;1.40;1.20;;;4.00;99.90;;;;;;6149253;23;20210;-70
2021/12/14 10:42:40;;;;;;;1.20;1.10;;;4.00;99.90;;;;;;6148315;23;20182;-70
2021/12/14 10:42:52;;;;;;;1.73;1.23;;;3.90;99.90;;;;;;6138781;23;20193;-71
2021/12/14 10:45:24;;;;;;;1.33;1.23;;;3.90;99.90;;;;;;6150692;23;20207;-70
2021/12/14 10:47:55;;;;;;;1.00;1.00;;;3.70;99.90;;;;;;6148556;23;20183;-71
2021/12/14 10:50:32;;;;;;;1.40;1.30;;;3.60;99.90;;;;;;6147824;23;20229;-71
2021/12/14 10:53:05;;;;;;;1.30;1.20;;;3.60;99.90;;;;;;6150767;23;20187;-71
2021/12/14 10:55:42;;;;;;;1.55;1.45;;;3.40;99.90;;;;;;6144197;23;20190;-71
2021/12/14 10:58:14;;;;;;;4.10;1.80;;;3.40;99.90;;;;;;6146031;23;20190;-71
2021/12/14 11:00:50;;;;;;;1.95;1.85;;;3.40;99.90;;;;;;6148626;23;20183;-70
2021/12/14 11:03:23;;;;;;;2.40;1.98;;;3.30;99.90;;;;;;6149241;23;20193;-70
2021/12/14 11:05:58;;;;;;;1.80;1.65;;;3.30;99.90;;;;;;6144234;23;20194;-70
2021/12/14 11:08:45;;;;;;;2.13;2.00;;;3.20;99.90;;;;;;6148131;23;20210;-70
2021/12/14 11:11:23;;;;;;;2.20;2.00;;;3.20;99.90;;;;;;6148754;23;20221;-70
2021/12/14 11:14:00;;;;;;;2.20;2.00;;;3.20;99.90;;;;;;6150328;23;20194;-70
2021/12/14 11:18:08;;;;;;;1.40;1.30;;;3.10;99.90;;;;;;6146744;23;20243;-70
2021/12/14 11:19:35;;;;;;;1.52;1.42;;;3.00;99.90;;;;;;6147277;23;20183;-70
2021/12/14 11:22:14;;;;;;;2.15;1.95;;;3.00;99.90;;;;;;6150618;23;20187;-71
2021/12/14 11:24:46;;;;;;;2.30;2.10;;;3.00;99.90;;;;;;6145837;23;20187;-70
2021/12/14 11:27:21;;;;;;;1.95;1.85;;;3.00;99.90;;;;;;6138136;23;20187;-71
2021/12/14 11:29:55;;;;;;;1.70;1.60;;;2.90;99.90;;;;;;6145956;23;20210;-70
2021/12/14 11:32:26;;;;;;;1.58;1.48;;;2.90;99.90;;;;;;6148477;23;20447;-70
2021/12/14 11:35:03;;;;;;;2.15;1.95;;;2.80;99.90;;;;;;6147464;23;20183;-70
2021/12/14 11:37:38;;;;;;;3.72;2.65;;;2.80;99.90;;;;;;6146617;23;20183;-70
2021/12/14 11:40:15;;;;;;;2.00;1.90;;;2.80;99.90;;;;;;6148195;23;20187;-70
2021/12/14 11:42:46;;;;;;;2.28;2.05;;;2.80;99.90;;;;;;6148366;23;20379;-71
2021/12/14 11:45:20;;;;;;;2.17;1.90;;;2.80;99.90;;;;;;6145780;23;20191;-71
2021/12/14 11:47:54;;;;;;;1.90;1.80;;;2.70;99.90;;;;;;6147886;23;20626;-70
2021/12/14 11:50:28;;;;;;;2.00;1.80;;;2.60;99.90;;;;;;6145219;23;20262;-71
2021/12/14 11:53:03;;;;;;;1.90;1.70;;;2.70;99.90;;;;;;6144969;23;20234;-71
2021/12/14 11:55:39;;;;;;;2.30;2.10;;;2.60;99.90;;;;;;6149997;23;20182;-70
2021/12/14 11:58:19;;;;;;;1.90;1.70;;;2.60;99.90;;;;;;6149662;23;20205;-70
2021/12/14 12:00:53;;;;;;;2.35;2.15;;;2.60;99.90;;;;;;6150175;23;20615;-71
2021/12/14 12:03:28;;;;;;;1.80;1.70;;;2.50;99.90;;;;;;6148635;23;20186;-70
2021/12/14 12:06:08;;;;;;;2.13;1.92;;;2.50;99.90;;;;;;6150323;23;20245;-72
2021/12/14 12:11:38;;;;;;;2.40;2.22;;;2.40;99.90;;;;;;6145806;23;20204;-71
2021/12/14 12:14:28;;;;;;;1.98;1.77;;;2.40;99.90;;;;;;6151681;23;20283;-72
2021/12/14 12:17:09;;;;;;;1.63;1.52;;;2.40;99.90;;;;;;6149811;23;20187;-71
2021/12/14 12:19:42;;;;;;;2.00;1.80;;;2.30;99.90;;;;;;6146727;23;20607;-71
2021/12/14 12:22:17;;;;;;;1.40;1.30;;;2.20;99.90;;;;;;6150925;23;20337;-71
2021/12/14 12:24:52;;;;;;;1.65;1.55;;;2.20;99.90;;;;;;6151503;23;20528;-71
2021/12/14 12:27:29;;;;;;;2.90;2.45;;;2.20;99.90;;;;;;6150016;23;20187;-71
2021/12/14 12:30:33;;;;;;;2.65;1.55;;;2.30;99.90;;;;;;6149300;23;20218;-71
2021/12/14 12:33:20;;;;;;;2.25;2.05;;;2.30;99.90;;;;;;6149000;23;20209;-71
2021/12/14 12:35:54;;;;;;;2.05;1.60;;;2.30;99.90;;;;;;6141967;23;21087;-70
2021/12/14 12:38:45;;;;;;;2.05;1.75;;;2.40;99.90;;;;;;6149516;23;20767;-71
2021/12/14 12:41:26;;;;;;;1.50;1.40;;;2.40;99.90;;;;;;6149882;23;20650;-71
2021/12/14 12:44:01;;;;;;;2.88;1.60;;;2.40;99.90;;;;;;6151602;23;20190;-71
2021/12/14 12:46:36;;;;;;;1.80;1.70;;;2.50;99.90;;;;;;6147825;23;20187;-71
2021/12/14 12:49:11;;;;;;;1.50;1.40;;;2.50;99.90;;;;;;6145832;23;20322;-71
2021/12/14 12:51:55;;;;;;;2.25;1.88;;;2.50;99.90;;;;;;6149606;23;20205;-69
2021/12/14 12:54:43;;;;;;;2.35;2.15;;;2.50;99.90;;;;;;6151133;23;20600;-70
2021/12/14 12:57:33;;;;;;;2.10;1.67;;;2.50;99.90;;;;;;6149968;23;20187;-71
2021/12/14 13:00:27;;;;;;;2.10;1.83;;;2.50;99.90;;;;;;6147418;23;20655;-71
2021/12/14 13:03:02;;;;;;;2.13;1.95;;;2.50;99.90;;;;;;6148596;23;20657;-70
2021/12/14 13:05:38;;;;;;;2.35;1.77;;;2.50;99.90;;;;;;6149030;23;20183;-71
2021/12/14 13:08:16;;;;;;;1.92;1.73;;;2.50;99.90;;;;;;6146665;23;20209;-70
2021/12/14 13:10:50;;;;;;;1.63;1.52;;;2.50;99.90;;;;;;6149007;23;20197;-70
2021/12/14 13:13:26;;;;;;;2.50;2.28;;;2.40;99.90;;;;;;6148989;23;20667;-70
2021/12/14 13:16:07;;;;;;;3.70;2.10;;;2.40;99.90;;;;;;6149313;23;20619;-71
2021/12/14 13:18:51;;;;;;;2.53;2.33;;;2.30;99.90;;;;;;6146833;23;20187;-71
2021/12/14 13:21:45;;;;;;;3.25;2.08;;;2.30;99.90;;;;;;6149008;23;20689;-71
2021/12/14 13:24:23;;;;;;;1.88;1.70;;;2.30;99.90;;;;;;6150933;23;20529;-71
2021/12/14 13:27:03;;;;;;;2.13;2.00;;;2.20;99.90;;;;;;6151556;23;20187;-73
2021/12/14 13:29:44;;;;;;;1.90;1.80;;;2.20;99.90;;;;;;6144922;23;20302;-72
2021/12/14 13:32:21;;;;;;;2.65;2.25;;;2.20;99.90;;;;;;6147852;23;20282;-72
2021/12/14 13:34:58;;;;;;;3.05;2.75;;;2.20;99.90;;;;;;6149487;23;20201;-71
2021/12/14 13:37:32;;;;;;;2.35;2.15;;;2.20;99.90;;;;;;6149318;23;20278;-71
2021/12/14 13:40:08;;;;;;;2.40;2.20;;;2.30;99.90;;;;;;6149357;23;20189;-71
2021/12/14 13:42:48;;;;;;;3.05;2.70;;;2.30;99.90;;;;;;6144807;23;20187;-71
2021/12/14 13:45:24;;;;;;;4.30;3.00;;;2.30;99.90;;;;;;6148914;23;20198;-71
2021/12/14 13:47:55;;;;;;;3.42;2.63;;;2.30;99.90;;;;;;6149013;23;20191;-71
2021/12/14 13:50:35;;;;;;;2.75;2.30;;;2.30;99.90;;;;;;6150005;23;20187;-70
2021/12/14 13:53:06;;;;;;;3.40;3.10;;;2.40;99.90;;;;;;6148440;23;20203;-71
2021/12/14 13:55:39;;;;;;;5.25;4.15;;;2.40;99.90;;;;;;6148913;23;20670;-72
2021/12/14 13:58:16;;;;;;;4.10;3.50;;;2.40;99.90;;;;;;6144642;23;20183;-71
2021/12/14 14:00:52;;;;;;;5.32;3.50;;;2.40;99.90;;;;;;6143020;23;20190;-72
2021/12/14 14:03:27;;;;;;;3.75;3.08;;;2.30;99.90;;;;;;6149563;23;20249;-72
2021/12/14 14:06:00;;;;;;;6.88;3.55;;;2.30;99.90;;;;;;6146387;23;20183;-71
2021/12/14 14:08:36;;;;;;;4.00;3.15;;;2.30;99.90;;;;;;6148427;23;20183;-71
2021/12/14 14:11:19;;;;;;;3.88;3.47;;;2.30;99.90;;;;;;6146752;23;20183;-71
2021/12/14 14:13:51;;;;;;;3.67;3.17;;;2.40;99.90;;;;;;6147939;23;20203;-71
2021/12/14 14:16:24;;;;;;;5.60;3.53;;;2.40;99.90;;;;;;6150607;23;20194;-71
2021/12/14 14:18:55;;;;;;;3.90;3.25;;;2.40;99.90;;;;;;6147213;23;20182;-71
2021/12/14 14:21:32;;;;;;;5.20;3.75;;;2.40;99.90;;;;;;6148716;23;20191;-71
2021/12/14 14:24:03;;;;;;;4.55;4.05;;;2.50;99.90;;;;;;6150309;23;20197;-71
2021/12/14 14:26:40;;;;;;;5.95;3.60;;;2.50;99.90;;;;;;6146366;23;20480;-71
2021/12/14 14:29:13;;;;;;;6.18;3.80;;;2.50;99.90;;;;;;6145958;23;20206;-71
2021/12/14 14:31:49;;;;;;;4.03;3.67;;;2.50;99.90;;;;;;6148630;23;20187;-71
2021/12/14 14:34:35;;;;;;;4.05;3.40;;;2.50;99.90;;;;;;6148119;23;20621;-71
2021/12/14 14:37:10;;;;;;;4.75;3.47;;;2.50;99.90;;;;;;6138663;23;20265;-70
2021/12/14 14:39:47;;;;;;;4.25;3.80;;;2.50;99.90;;;;;;6145184;23;20602;-71
2021/12/14 14:42:21;;;;;;;3.70;3.30;;;2.50;99.90;;;;;;6148791;23;20183;-70